createdAt,value
2022-12-18T00:02:01.861Z,102467.09
2022-12-18T00:04:29.082Z,102469.78
2022-12-18T00:06:55.399Z,102477.56
2022-12-18T00:09:21.931Z,102475.81
2022-12-18T00:11:50.885Z,102484.56
2022-12-18T00:14:17.137Z,102488.03
2022-12-18T00:16:47.359Z,102495.91
2022-12-18T00:19:14.522Z,102498.50
2022-12-18T00:21:40.865Z,102495.88
2022-12-18T00:24:07.400Z,102496.75
2022-12-18T00:26:35.049Z,102497.66
2022-12-18T00:29:05.905Z,102498.47
2022-12-18T00:31:32.181Z,102499.38
2022-12-18T00:34:00.824Z,102500.28
2022-12-18T00:36:34.301Z,102504.75
2022-12-18T00:39:02.148Z,102496.06
2022-12-18T00:41:47.354Z,102490.81
2022-12-18T00:44:15.633Z,102489.97
2022-12-18T00:46:43.532Z,102485.66
2022-12-18T00:49:09.665Z,102486.56
2022-12-18T00:51:35.844Z,102487.34
2022-12-18T00:54:02.079Z,102490.88
2022-12-18T00:56:28.195Z,102489.19
2022-12-18T00:58:54.383Z,102482.19
2022-12-18T01:01:20.912Z,102484.00
2022-12-18T01:03:47.728Z,102484.88
2022-12-18T01:06:16.491Z,102490.25
2022-12-18T01:08:43.184Z,102490.31
2022-12-18T01:11:16.201Z,102493.84
2022-12-18T01:13:42.464Z,102494.75
2022-12-18T01:16:09.974Z,102498.28
2022-12-18T01:18:36.750Z,102490.50
2022-12-18T01:21:07.900Z,102494.03
2022-12-18T01:23:37.280Z,102493.13
2022-12-18T01:26:08.504Z,102490.59
2022-12-18T01:28:35.318Z,102484.63
2022-12-18T01:31:23.143Z,102495.13
2022-12-18T01:33:49.455Z,102504.63
2022-12-18T01:36:20.429Z,102497.59
2022-12-18T01:38:47.504Z,102501.94
2022-12-18T01:41:14.593Z,102510.63
2022-12-18T01:43:45.013Z,102504.47
2022-12-18T01:46:11.673Z,102508.81
2022-12-18T01:48:39.847Z,102507.91
2022-12-18T01:51:07.940Z,102506.19
2022-12-18T01:53:34.417Z,102508.81
2022-12-18T01:56:00.715Z,102507.09
2022-12-18T01:58:49.598Z,102511.44
2022-12-18T02:01:15.909Z,102526.22
2022-12-18T02:03:43.940Z,102525.34
2022-12-18T02:06:17.174Z,102517.50
2022-12-18T02:08:49.456Z,102512.31
2022-12-18T02:11:47.396Z,102514.91
2022-12-18T02:14:40.038Z,102514.94
2022-12-18T02:17:19.684Z,102513.25
2022-12-18T02:20:16.989Z,102513.28
2022-12-18T02:23:10.840Z,102522.88
2022-12-18T02:25:56.033Z,102528.06
2022-12-18T02:28:25.871Z,102515.91
2022-12-18T02:30:57.313Z,102516.81
2022-12-18T02:33:28.794Z,102521.13
2022-12-18T02:35:58.523Z,102522.84
2022-12-18T02:38:26.593Z,102527.22
2022-12-18T02:40:55.014Z,102530.72
2022-12-18T02:43:22.773Z,102535.94
2022-12-18T02:45:53.105Z,102528.06
2022-12-18T02:48:23.837Z,102531.59
2022-12-18T02:51:18.321Z,102532.44
2022-12-18T02:54:24.593Z,102545.50
2022-12-18T02:56:58.756Z,102546.41
2022-12-18T02:59:38.778Z,102557.75
2022-12-18T03:02:27.532Z,102549.06
2022-12-18T03:05:05.734Z,102557.75
2022-12-18T03:07:46.325Z,102556.94
2022-12-18T03:10:17.619Z,102560.50
2022-12-18T03:12:52.380Z,102571.84
2022-12-18T03:15:21.924Z,102570.94
2022-12-18T03:18:10.064Z,102571.81
2022-12-18T03:20:39.059Z,102567.44
2022-12-18T03:23:19.015Z,102574.38
2022-12-18T03:25:51.884Z,102564.84
2022-12-18T03:28:22.729Z,102567.41
2022-12-18T03:30:59.054Z,102574.38
2022-12-18T03:33:41.133Z,102577.00
2022-12-18T03:36:08.027Z,102579.66
2022-12-18T03:38:34.307Z,102587.44
2022-12-18T03:41:09.614Z,102577.91
2022-12-18T03:44:00.840Z,102567.41
2022-12-18T03:47:06.396Z,102562.19
2022-12-18T03:49:37.604Z,102567.44
2022-12-18T03:52:12.196Z,102565.72
2022-12-18T03:54:42.776Z,102557.91
2022-12-18T03:57:25.807Z,102563.25
2022-12-18T03:59:58.355Z,102559.81
2022-12-18T04:02:31.500Z,102564.19
2022-12-18T04:05:04.541Z,102573.72
2022-12-18T04:07:31.693Z,102576.41
2022-12-18T04:10:00.910Z,102567.69
2022-12-18T04:12:30.309Z,102570.28
2022-12-18T04:14:56.712Z,102577.22
2022-12-18T04:17:23.535Z,102576.31
2022-12-18T04:19:49.750Z,102579.81
2022-12-18T04:22:16.588Z,102587.63
2022-12-18T04:24:47.067Z,102578.06
2022-12-18T04:27:24.925Z,102570.25
2022-12-18T04:29:51.256Z,102574.56
2022-12-18T04:32:18.475Z,102575.47
2022-12-18T04:34:44.928Z,102571.97
2022-12-18T04:37:11.055Z,102576.28
2022-12-18T04:39:37.536Z,102587.59
2022-12-18T04:42:09.612Z,102594.56
2022-12-18T04:44:35.845Z,102597.19
2022-12-18T04:47:01.955Z,102609.38
2022-12-18T04:49:28.153Z,102597.19
2022-12-18T04:51:54.585Z,102603.34
2022-12-18T04:54:21.444Z,102598.13
2022-12-18T13:53:34.423Z,102704.34
2022-12-18T13:56:00.629Z,102700.28
2022-12-18T13:58:26.749Z,102698.81
2022-12-18T14:00:53.490Z,102691.72
2022-12-18T14:03:23.494Z,102687.25
2022-12-18T14:06:00.996Z,102696.03
2022-12-18T14:08:33.382Z,102682.00
2022-12-18T14:10:59.667Z,102668.06
2022-12-18T14:13:30.521Z,102669.91
2022-12-18T14:15:59.173Z,102670.75
2022-12-18T14:18:37.520Z,102662.09
2022-12-18T14:21:05.139Z,102662.09
2022-12-18T14:23:31.171Z,102663.81
2022-12-18T14:26:02.088Z,102658.56
2022-12-18T14:28:32.717Z,102658.50
2022-12-18T14:30:58.970Z,102672.53
2022-12-18T14:33:27.513Z,102673.44
2022-12-18T14:36:06.895Z,102657.66
2022-12-18T14:38:39.842Z,102646.31
2022-12-18T14:41:07.645Z,102638.53
2022-12-18T14:43:36.264Z,102648.25
2022-12-18T14:46:04.586Z,102645.69
2022-12-18T14:48:40.120Z,102643.22
2022-12-18T14:51:17.750Z,102635.50
2022-12-18T14:53:50.711Z,102632.13
2022-12-18T14:56:26.788Z,102619.84
2022-12-18T14:58:56.925Z,102616.38
2022-12-18T15:01:29.241Z,102614.53
2022-12-18T15:03:57.183Z,102602.25
2022-12-18T15:06:31.562Z,102601.41
2022-12-18T15:08:58.888Z,102590.06
2022-12-18T15:11:41.454Z,102590.19
2022-12-18T15:14:39.492Z,102597.13
2022-12-18T15:17:20.964Z,102603.34
2022-12-18T15:19:50.947Z,102615.59
2022-12-18T15:22:19.731Z,102639.09
2022-12-18T15:24:46.266Z,102645.13
2022-12-18T15:27:23.795Z,102658.28
2022-12-18T15:30:08.945Z,102666.97
2022-12-18T15:32:37.281Z,102663.44
2022-12-18T15:35:12.262Z,102662.53
2022-12-18T15:37:38.865Z,102663.44
2022-12-18T15:40:06.629Z,102665.16
2022-12-18T15:42:51.241Z,102661.63
2022-12-18T15:45:17.380Z,102653.75
2022-12-18T15:47:45.477Z,102659.84
2022-12-18T15:50:11.749Z,102656.31
2022-12-18T15:52:43.127Z,102646.75
2022-12-18T15:55:42.119Z,102636.34
2022-12-18T15:58:09.836Z,102632.09
2022-12-18T16:00:38.916Z,102634.72
2022-12-18T16:03:06.227Z,102635.66
2022-12-18T16:05:32.624Z,102639.94
2022-12-18T16:07:59.330Z,102640.75
2022-12-18T16:10:27.244Z,102644.22
2022-12-18T16:12:53.507Z,102635.47
2022-12-18T16:15:24.243Z,102639.00
2022-12-18T16:17:50.895Z,102631.13
2022-12-18T16:20:22.452Z,102622.41
2022-12-18T16:22:49.615Z,102622.41
2022-12-18T16:25:20.744Z,102623.25
2022-12-18T16:27:47.040Z,102630.25
2022-12-18T16:30:30.538Z,102621.63
2022-12-18T16:33:04.504Z,102624.25
2022-12-18T16:35:30.608Z,102615.53
2022-12-18T16:37:56.722Z,102617.31
2022-12-18T16:40:22.829Z,102607.75
2022-12-18T16:42:48.951Z,102599.09
2022-12-18T16:45:18.372Z,102600.75
2022-12-18T16:47:45.502Z,102596.41
2022-12-18T16:50:12.132Z,102595.50
2022-12-18T16:52:38.699Z,102600.81
2022-12-18T16:55:05.274Z,102607.75
2022-12-18T16:57:31.535Z,102601.59
2022-12-18T17:00:02.973Z,102605.94
2022-12-18T17:02:31.311Z,102596.38
2022-12-18T17:04:58.712Z,102598.13
2022-12-18T17:07:26.164Z,102601.59
2022-12-18T17:09:54.181Z,102605.91
2022-12-18T17:12:21.106Z,102598.13
2022-12-18T17:14:47.352Z,102593.81
2022-12-18T17:17:22.325Z,102590.34
2022-12-18T17:19:49.856Z,102585.97
2022-12-18T17:22:16.054Z,102596.47
2022-12-18T17:24:42.150Z,102588.69
2022-12-18T17:27:09.003Z,102597.41
2022-12-18T17:29:35.114Z,102595.63
2022-12-18T17:32:01.252Z,102596.44
2022-12-18T17:34:27.877Z,102595.63
2022-12-18T17:36:54.348Z,102600.84
2022-12-18T17:39:20.984Z,102606.03
2022-12-18T17:41:48.181Z,102608.78
2022-12-18T17:44:14.530Z,102613.19
2022-12-18T17:46:40.951Z,102614.19
2022-12-18T17:49:07.097Z,102618.53
2022-12-18T17:51:33.230Z,102617.63
2022-12-18T17:53:59.442Z,102615.88
2022-12-18T17:56:26.074Z,102612.41
2022-12-18T17:58:52.264Z,102605.53
2022-12-18T18:01:24.487Z,102608.16
2022-12-18T18:03:53.514Z,102611.69
2022-12-18T18:06:20.059Z,102604.75
2022-12-18T18:08:46.223Z,102589.97
2022-12-18T18:11:33.892Z,102595.19
2022-12-18T18:14:00.872Z,102594.34
2022-12-18T18:16:33.515Z,102594.41
2022-12-18T18:19:03.095Z,102593.53
2022-12-18T18:21:29.853Z,102589.25
2022-12-18T18:23:59.724Z,102576.25
2022-12-18T18:26:29.347Z,102577.16
2022-12-18T18:28:56.116Z,102565.03
2022-12-18T18:31:26.779Z,102560.72
2022-12-18T18:33:53.058Z,102557.25
2022-12-18T18:36:19.241Z,102563.38
2022-12-18T18:38:48.381Z,102565.13
2022-12-18T18:41:15.057Z,102563.41
2022-12-18T18:43:42.009Z,102563.41
2022-12-18T18:46:13.002Z,102551.25
2022-12-18T18:48:42.381Z,102539.06
2022-12-18T18:51:14.684Z,102551.25
2022-12-18T18:53:48.576Z,102555.59
2022-12-18T18:56:56.632Z,102550.41
2022-12-18T18:59:02.758Z,102545.19
2022-12-18T19:01:29.064Z,102536.47
2022-12-18T19:03:55.463Z,102539.06
2022-12-18T19:06:27.090Z,102525.19
2022-12-18T19:08:56.078Z,102513.00
2022-12-18T19:11:42.261Z,102509.53
2022-12-18T19:14:10.740Z,102500.84
2022-12-18T19:16:37.366Z,102503.44
2022-12-18T19:19:04.551Z,102503.44
2022-12-18T19:21:34.189Z,102505.16
2022-12-18T19:24:01.701Z,102510.41
2022-12-18T19:26:28.761Z,102497.34
2022-12-18T19:29:00.096Z,102508.66
2022-12-18T19:31:30.383Z,102506.91
2022-12-18T19:34:00.059Z,102501.69
2022-12-18T19:36:28.924Z,102489.56
2022-12-18T19:38:58.285Z,102499.97
2022-12-18T19:41:25.512Z,102492.16
2022-12-18T19:43:52.835Z,102487.81
2022-12-18T19:46:22.140Z,102486.97
2022-12-18T19:48:49.151Z,102480.88
2022-12-18T19:51:21.276Z,102490.41
2022-12-18T19:53:47.879Z,102482.59
2022-12-18T19:56:16.460Z,102474.78
2022-12-18T19:58:44.115Z,102470.44
2022-12-18T20:01:11.430Z,102476.50
2022-12-18T20:03:39.166Z,102476.50
2022-12-18T20:06:10.216Z,102471.28
2022-12-18T20:08:37.043Z,102473.03
2022-12-18T20:11:03.147Z,102478.22
2022-12-18T20:13:29.495Z,102477.41
2022-12-18T20:15:55.671Z,102474.75
2022-12-18T20:18:21.892Z,102463.44
2022-12-18T20:20:48.826Z,102457.38
2022-12-18T20:23:16.778Z,102449.53
2022-12-18T20:25:42.906Z,102448.63
2022-12-18T20:28:09.083Z,102444.31
2022-12-18T20:30:35.214Z,102441.69
2022-12-18T20:33:01.338Z,102446.00
2022-12-18T20:35:28.816Z,102431.22
2022-12-18T20:37:57.943Z,102432.94
2022-12-18T20:40:26.348Z,102436.38
2022-12-18T20:42:52.548Z,102444.16
2022-12-18T20:45:20.257Z,102441.50
2022-12-18T20:47:46.394Z,102442.41
2022-12-18T20:50:12.682Z,102460.66
2022-12-18T20:52:38.864Z,102461.56
2022-12-18T20:55:06.436Z,102449.38
2022-12-18T20:57:33.067Z,102449.38
2022-12-18T20:59:59.284Z,102448.47
2022-12-18T21:02:25.779Z,102447.63
2022-12-18T21:04:52.075Z,102441.53
2022-12-18T21:07:18.202Z,102438.88
2022-12-18T21:09:44.327Z,102444.09
2022-12-18T21:12:38.895Z,102439.78
2022-12-18T21:15:14.273Z,102432.81
2022-12-18T21:17:44.575Z,102433.63
2022-12-18T21:20:11.888Z,102423.19
2022-12-18T21:22:43.861Z,102424.06
2022-12-18T21:25:10.101Z,102423.19
2022-12-18T21:27:36.247Z,102415.31
2022-12-18T21:30:02.533Z,102412.72
2022-12-18T21:32:30.936Z,102415.31
2022-12-18T21:34:59.680Z,102407.44
2022-12-18T21:37:25.824Z,102403.13
2022-12-18T21:39:52.013Z,102396.19
2022-12-18T21:42:36.951Z,102400.56
2022-12-18T21:45:03.135Z,102406.63
2022-12-18T21:47:29.300Z,102404.03
2022-12-18T21:49:55.451Z,102410.94
2022-12-18T21:52:32.059Z,102404.88
2022-12-18T21:55:01.883Z,102402.31
2022-12-18T21:57:34.443Z,102411.00
2022-12-18T22:00:02.070Z,102404.88
2022-12-18T22:02:38.231Z,102402.22
2022-12-18T22:05:04.759Z,102389.13
2022-12-18T22:07:31.236Z,102390.06
2022-12-18T22:09:57.361Z,102385.69
2022-12-18T22:12:43.311Z,102389.97
2022-12-18T22:15:11.956Z,102389.16
2022-12-18T22:17:40.001Z,102383.09
2022-12-18T22:20:06.874Z,102377.88
2022-12-18T22:22:32.977Z,102378.81
2022-12-18T22:24:59.091Z,102381.34
2022-12-18T22:27:25.209Z,102373.56
2022-12-18T22:30:06.592Z,102367.47
2022-12-18T22:32:35.088Z,102366.63
2022-12-18T22:35:09.184Z,102366.63
2022-12-18T22:37:37.104Z,102360.59
2022-12-18T22:40:03.790Z,102363.22
2022-12-18T22:42:30.857Z,102354.50
2022-12-18T22:44:57.021Z,102346.69
2022-12-18T22:47:27.872Z,102346.78
2022-12-18T22:49:55.819Z,102340.72
2022-12-18T22:52:21.953Z,102338.09
2022-12-18T22:54:50.461Z,102341.56
2022-12-18T22:57:16.559Z,102333.78
2022-12-18T22:59:42.767Z,102311.19
2022-12-18T23:02:08.988Z,102312.09
2022-12-18T23:04:36.942Z,102310.34
2022-12-18T23:07:04.907Z,102297.25
2022-12-18T23:09:31.112Z,102299.88
2022-12-18T23:11:57.234Z,102292.94
2022-12-18T23:14:23.414Z,102284.25
2022-12-18T23:16:49.531Z,102288.63
2022-12-18T23:19:18.334Z,102278.19
2022-12-18T23:21:44.437Z,102270.41
2022-12-18T23:24:10.683Z,102266.94
2022-12-18T23:26:37.312Z,102259.97
2022-12-18T23:29:04.237Z,102254.75
2022-12-18T23:31:33.329Z,102242.59
2022-12-18T23:34:01.519Z,102247.81
2022-12-18T23:36:28.603Z,102240.84
2022-12-18T23:38:58.800Z,102239.09
2022-12-18T23:41:28.179Z,102245.16
2022-12-18T23:43:54.776Z,102241.69
2022-12-18T23:46:26.158Z,102232.13
2022-12-18T23:48:52.870Z,102239.91
2022-12-18T23:51:22.834Z,102243.38
2022-12-18T23:53:50.003Z,102236.41
2022-12-18T23:56:16.518Z,102225.09
2022-12-18T23:58:43.293Z,102223.31
